Time;durP1;ratioP1;P1;durP2;ratioP2;P2;SDS_P1;SDS_P2;PMS_P1;PMS_P2;Temp;Humidity;BMP_temperature;BMP_pressure;BME280_temperature;BME280_humidity;BME280_pressure;Samples;Min_cycle;Max_cycle;Signal;HPM_P1;HPM_P2
2022/07/14 00:01:43;;;;;;;8.02;1.98;;;21.00;79.20;;;;;;5092351;28;20039;-69
2022/07/14 00:04:08;;;;;;;15.43;2.17;;;20.90;79.30;;;;;;5089399;28;20028;-69
2022/07/14 00:06:35;;;;;;;7.50;1.90;;;21.00;79.60;;;;;;5090951;28;20391;-69
2022/07/14 00:09:01;;;;;;;8.82;2.60;;;20.90;79.30;;;;;;5094387;28;20400;-69
2022/07/14 00:11:27;;;;;;;5.93;1.50;;;20.90;79.20;;;;;;5092362;28;20037;-69
2022/07/14 00:13:53;;;;;;;5.95;1.70;;;20.80;79.10;;;;;;5098202;28;20452;-69
2022/07/14 00:16:19;;;;;;;13.65;2.60;;;20.80;79.00;;;;;;5096268;28;20365;-69
2022/07/14 00:18:44;;;;;;;15.82;2.10;;;20.80;79.00;;;;;;5099297;28;20035;-69
2022/07/14 00:21:14;;;;;;;7.50;2.25;;;20.70;79.30;;;;;;5082820;28;20388;-68
2022/07/14 00:23:45;;;;;;;11.05;2.05;;;20.70;79.50;;;;;;5108102;28;20036;-69
2022/07/14 00:26:12;;;;;;;7.40;2.03;;;20.60;79.60;;;;;;5094172;28;20023;-69
2022/07/14 00:28:40;;;;;;;7.28;2.00;;;20.60;79.60;;;;;;5089085;28;20027;-69
2022/07/14 00:31:10;;;;;;;9.50;1.83;;;20.60;79.60;;;;;;5077459;28;20039;-68
2022/07/14 00:33:38;;;;;;;6.00;2.05;;;20.50;79.40;;;;;;5095210;28;20016;-68
2022/07/14 00:36:05;;;;;;;17.00;1.88;;;20.50;79.50;;;;;;5065387;28;20740;-69
2022/07/14 00:38:30;;;;;;;7.40;2.05;;;20.40;79.30;;;;;;5093892;28;20027;-68
2022/07/14 00:40:57;;;;;;;7.35;2.30;;;20.40;79.50;;;;;;5084329;28;20024;-69
2022/07/14 00:43:24;;;;;;;8.80;2.03;;;20.40;79.30;;;;;;5089484;28;20055;-68
2022/07/14 00:45:52;;;;;;;15.30;1.90;;;20.40;79.10;;;;;;5064718;28;20120;-68
2022/07/14 00:48:19;;;;;;;7.75;1.73;;;20.30;79.50;;;;;;5112565;28;20108;-68
2022/07/14 00:50:45;;;;;;;6.22;1.73;;;20.30;78.80;;;;;;5101765;28;20038;-68
2022/07/14 00:53:12;;;;;;;8.13;2.10;;;20.30;78.90;;;;;;5088641;28;20541;-69
2022/07/14 00:55:42;;;;;;;13.05;2.92;;;20.30;78.80;;;;;;5094782;28;20028;-69
2022/07/14 00:58:10;;;;;;;7.10;1.83;;;20.20;78.90;;;;;;5098673;28;20480;-68
2022/07/14 01:00:36;;;;;;;7.90;2.00;;;20.20;78.80;;;;;;5063722;28;20107;-69
2022/07/14 01:03:02;;;;;;;6.55;1.60;;;20.20;78.90;;;;;;5097777;28;20023;-69
2022/07/14 01:05:28;;;;;;;6.88;2.15;;;20.10;78.70;;;;;;5096472;28;20073;-69
2022/07/14 01:07:54;;;;;;;5.57;1.75;;;20.10;78.60;;;;;;5076838;28;20080;-69
2022/07/14 01:10:20;;;;;;;6.18;2.03;;;20.10;78.70;;;;;;5094312;28;20438;-69
2022/07/14 01:12:47;;;;;;;8.48;1.90;;;20.00;78.70;;;;;;5077203;28;20032;-69
2022/07/14 01:15:17;;;;;;;7.65;1.73;;;20.10;78.70;;;;;;5107869;28;20046;-68
2022/07/14 01:17:47;;;;;;;10.40;2.05;;;20.00;78.70;;;;;;5107557;28;20118;-69
2022/07/14 01:20:17;;;;;;;6.82;1.85;;;19.90;78.90;;;;;;5078045;28;20024;-69
2022/07/14 01:22:46;;;;;;;10.38;2.08;;;20.00;78.90;;;;;;5084676;28;20475;-69
2022/07/14 01:25:13;;;;;;;7.93;2.03;;;19.90;79.00;;;;;;5080355;28;20421;-69
2022/07/14 01:27:39;;;;;;;8.52;1.90;;;19.90;79.40;;;;;;5098290;28;20032;-68
2022/07/14 01:30:07;;;;;;;6.03;1.85;;;19.80;79.50;;;;;;5088905;28;20055;-69
2022/07/14 01:32:34;;;;;;;7.38;1.90;;;19.80;79.40;;;;;;5094249;28;20438;-69
2022/07/14 01:35:03;;;;;;;13.27;2.38;;;19.80;79.40;;;;;;5094222;28;20472;-69
2022/07/14 01:37:30;;;;;;;6.93;1.67;;;19.70;79.30;;;;;;5093673;28;20076;-68
2022/07/14 01:39:55;;;;;;;8.23;2.22;;;19.70;79.40;;;;;;5080655;28;20455;-69
2022/07/14 01:42:21;;;;;;;8.45;1.92;;;19.60;79.60;;;;;;5094893;28;20036;-69
2022/07/14 01:44:50;;;;;;;6.82;2.05;;;19.60;79.80;;;;;;5075842;28;20046;-68
2022/07/14 01:47:15;;;;;;;6.88;2.00;;;19.50;80.10;;;;;;5077105;28;20028;-69
2022/07/14 01:49:41;;;;;;;7.00;1.85;;;19.50;80.60;;;;;;5109218;28;20051;-69
2022/07/14 01:52:09;;;;;;;8.32;1.83;;;19.50;80.80;;;;;;5075995;28;20043;-69
2022/07/14 01:54:37;;;;;;;7.45;2.00;;;19.50;81.60;;;;;;5088291;28;20056;-69
2022/07/14 01:57:06;;;;;;;9.85;1.67;;;19.50;81.10;;;;;;5090918;28;20548;-68
2022/07/14 01:59:32;;;;;;;7.05;2.17;;;19.40;81.10;;;;;;5079181;28;20020;-69
2022/07/14 02:01:58;;;;;;;8.90;1.90;;;19.40;80.90;;;;;;5075761;28;20101;-69
2022/07/14 02:04:25;;;;;;;5.90;1.73;;;19.30;80.70;;;;;;5076013;28;20050;-69
2022/07/14 02:06:55;;;;;;;8.57;2.40;;;19.30;80.50;;;;;;5071708;28;20484;-69
2022/07/14 02:12:38;;;;;;;5.07;1.80;;;19.30;80.10;;;;;;5055062;28;20083;-69
2022/07/14 02:15:07;;;;;;;7.25;2.05;;;19.20;80.10;;;;;;5082653;28;20800;-68
2022/07/14 02:17:35;;;;;;;8.75;1.92;;;19.20;80.20;;;;;;5080622;28;20514;-69
2022/07/14 02:20:01;;;;;;;11.43;1.92;;;19.20;80.30;;;;;;5078680;28;20028;-69
2022/07/14 02:22:27;;;;;;;8.15;1.95;;;19.10;80.50;;;;;;5075402;28;20551;-69
2022/07/14 02:24:53;;;;;;;9.55;2.20;;;19.10;80.70;;;;;;5093468;28;20024;-69
2022/07/14 02:27:19;;;;;;;8.07;2.25;;;19.10;80.70;;;;;;5085462;28;20057;-68
2022/07/14 02:29:45;;;;;;;11.93;2.13;;;19.00;80.80;;;;;;5070439;28;20059;-69
2022/07/14 02:32:11;;;;;;;5.22;1.63;;;19.00;80.90;;;;;;5075426;28;20073;-69
2022/07/14 02:34:37;;;;;;;7.28;2.03;;;19.00;81.20;;;;;;5075734;28;20501;-69
2022/07/14 02:37:03;;;;;;;8.82;2.00;;;18.90;81.40;;;;;;5093431;28;20520;-69
2022/07/14 02:39:29;;;;;;;8.75;2.00;;;18.90;81.50;;;;;;5075651;28;20403;-68
2022/07/14 02:41:55;;;;;;;6.68;2.22;;;18.90;81.90;;;;;;5075137;28;20036;-69
2022/07/14 02:44:21;;;;;;;6.18;1.95;;;18.80;82.00;;;;;;5095044;28;20032;-68
2022/07/14 02:46:47;;;;;;;10.20;2.22;;;18.80;82.20;;;;;;5079964;28;20035;-68
2022/07/14 02:49:13;;;;;;;8.10;2.00;;;18.80;82.40;;;;;;5085506;28;20369;-68
2022/07/14 02:51:41;;;;;;;8.27;1.75;;;18.70;82.40;;;;;;5074966;28;20391;-68
2022/07/14 02:54:07;;;;;;;6.80;2.10;;;18.70;82.50;;;;;;5079973;28;20027;-68
2022/07/14 02:56:34;;;;;;;18.90;2.05;;;18.70;82.50;;;;;;5073910;28;20407;-68
2022/07/14 02:59:06;;;;;;;13.90;2.35;;;18.70;82.60;;;;;;5079615;28;20036;-68
2022/07/14 03:01:32;;;;;;;11.10;2.42;;;18.60;82.60;;;;;;5073535;28;20498;-68
2022/07/14 03:03:59;;;;;;;11.20;2.42;;;18.60;82.60;;;;;;5080559;28;20055;-68
2022/07/14 03:06:25;;;;;;;6.32;1.98;;;18.60;82.70;;;;;;5105763;28;20495;-68
2022/07/14 03:08:52;;;;;;;7.40;2.20;;;18.60;82.90;;;;;;5074194;28;20031;-68
2022/07/14 03:11:25;;;;;;;13.90;2.42;;;18.50;82.90;;;;;;5075290;28;20497;-69
2022/07/14 03:13:52;;;;;;;7.53;1.98;;;18.50;82.90;;;;;;5082312;28;20123;-68
2022/07/14 03:16:18;;;;;;;10.50;1.83;;;18.50;83.40;;;;;;5076192;28;20032;-68
2022/07/14 03:18:48;;;;;;;8.35;2.45;;;18.50;83.00;;;;;;5074741;28;20139;-68
2022/07/14 03:21:14;;;;;;;11.05;2.20;;;18.50;83.00;;;;;;5073745;28;20107;-69
2022/07/14 03:23:45;;;;;;;13.30;1.90;;;18.50;82.90;;;;;;5073851;28;20112;-68
2022/07/14 03:26:16;;;;;;;8.50;1.85;;;18.50;83.00;;;;;;5074689;28;20028;-68
2022/07/14 03:28:42;;;;;;;9.43;2.10;;;18.40;83.00;;;;;;5074697;28;20498;-69
2022/07/14 03:31:08;;;;;;;8.60;2.22;;;18.40;83.10;;;;;;5073980;28;20123;-68
2022/07/14 03:33:34;;;;;;;9.80;2.03;;;18.40;83.20;;;;;;5076354;28;20074;-68
2022/07/14 03:36:00;;;;;;;6.97;1.80;;;18.30;83.20;;;;;;5080600;28;20020;-68
2022/07/14 03:38:27;;;;;;;13.30;2.22;;;18.30;83.20;;;;;;5087226;28;20048;-68
2022/07/14 03:40:55;;;;;;;5.72;1.63;;;18.30;83.20;;;;;;5073834;28;20379;-68
2022/07/14 03:43:21;;;;;;;10.90;2.30;;;18.30;83.20;;;;;;5086282;28;20024;-68
2022/07/14 03:45:47;;;;;;;8.85;2.22;;;18.30;83.20;;;;;;5074004;28;20028;-68
2022/07/14 03:48:19;;;;;;;9.18;2.08;;;18.20;83.30;;;;;;5066980;28;20449;-68
2022/07/14 03:50:49;;;;;;;;;;;18.30;83.50;;;;;;5087940;28;20031;-69
2022/07/14 03:53:16;;;;;;;10.02;2.10;;;18.20;83.30;;;;;;5074853;28;19912;-68
2022/07/14 03:55:43;;;;;;;7.53;1.90;;;18.20;83.30;;;;;;5091736;28;20027;-68
2022/07/14 03:58:09;;;;;;;8.18;2.25;;;18.10;83.40;;;;;;5072747;28;20057;-69
2022/07/14 04:00:35;;;;;;;6.65;2.17;;;18.10;83.50;;;;;;5060487;28;20051;-69
2022/07/14 04:03:04;;;;;;;9.55;2.47;;;18.10;83.60;;;;;;5086388;28;20492;-68
2022/07/14 04:05:31;;;;;;;9.57;1.98;;;18.10;83.60;;;;;;5078265;28;20020;-68
2022/07/14 04:08:02;;;;;;;9.40;2.35;;;18.10;83.60;;;;;;5093329;28;20144;-69
2022/07/14 04:10:35;;;;;;;;;;;18.10;83.60;;;;;;5094188;28;20072;-68
2022/07/14 04:13:02;;;;;;;5.28;1.98;;;18.00;83.50;;;;;;5103280;28;20317;-68
2022/07/14 04:15:29;;;;;;;10.73;1.70;;;18.00;84.00;;;;;;5097845;28;20116;-68
2022/07/14 04:17:56;;;;;;;7.60;2.08;;;18.00;83.50;;;;;;5100780;28;20044;-68
2022/07/14 04:20:23;;;;;;;6.18;2.10;;;18.00;83.60;;;;;;5092776;28;20019;-68
2022/07/14 04:22:48;;;;;;;11.85;1.95;;;18.00;83.70;;;;;;5089724;28;20764;-69
2022/07/14 04:25:17;;;;;;;8.75;1.90;;;17.90;83.70;;;;;;5086923;28;20718;-69
2022/07/14 04:27:43;;;;;;;8.65;2.17;;;17.90;83.90;;;;;;5090962;28;20084;-68
2022/07/14 04:30:12;;;;;;;7.97;2.00;;;17.90;83.90;;;;;;5089641;28;20020;-68
2022/07/14 04:32:38;;;;;;;4.88;2.03;;;17.90;84.10;;;;;;5082960;28;20476;-68
2022/07/14 04:35:09;;;;;;;6.30;1.80;;;17.90;84.80;;;;;;5085045;28;20027;-68
2022/07/14 04:37:35;;;;;;;8.68;2.28;;;17.80;84.20;;;;;;5086533;28;20081;-68
2022/07/14 04:40:09;;;;;;;8.32;2.10;;;17.90;84.30;;;;;;5081704;28;20019;-68
2022/07/14 04:42:34;;;;;;;11.45;2.22;;;17.90;84.50;;;;;;5078667;28;20084;-68
2022/07/14 04:45:00;;;;;;;8.80;2.30;;;17.80;84.60;;;;;;5107669;28;20110;-68
2022/07/14 04:47:27;;;;;;;7.18;1.80;;;17.80;84.90;;;;;;5089241;28;20047;-68
2022/07/14 04:52:49;;;;;;;4.00;2.08;;;17.80;85.50;;;;;;5091744;28;20039;-68
2022/07/14 04:55:33;;;;;;;9.48;2.20;;;17.80;85.70;;;;;;5106009;28;20035;-68
2022/07/14 04:58:11;;;;;;;12.15;2.42;;;17.80;85.80;;;;;;5092590;28;20067;-68
2022/07/14 05:00:40;;;;;;;4.88;1.90;;;17.90;85.60;;;;;;5089377;28;20152;-69
2022/07/14 05:03:06;;;;;;;11.38;2.00;;;17.80;85.70;;;;;;5101291;28;20031;-68
2022/07/14 05:05:32;;;;;;;10.77;2.25;;;17.80;85.70;;;;;;5088004;28;20024;-68
2022/07/14 05:07:58;;;;;;;12.40;1.98;;;17.80;85.70;;;;;;5113219;28;20027;-68
2022/07/14 05:10:32;;;;;;;11.68;2.20;;;17.80;85.70;;;;;;5096148;28;20038;-69
2022/07/14 05:12:57;;;;;;;10.32;1.80;;;17.80;85.90;;;;;;5092760;28;20015;-68
2022/07/14 05:15:24;;;;;;;7.75;1.88;;;17.80;86.10;;;;;;5094365;28;20039;-68
2022/07/14 05:17:52;;;;;;;6.90;2.80;;;17.80;86.40;;;;;;5083233;28;20043;-68
2022/07/14 05:20:18;;;;;;;5.85;1.70;;;17.80;86.10;;;;;;5083799;28;20029;-68
2022/07/14 05:22:45;;;;;;;5.50;1.55;;;17.80;86.10;;;;;;5088982;28;20027;-68
2022/07/14 05:25:13;;;;;;;8.07;1.77;;;17.80;85.80;;;;;;5095756;28;20490;-69
2022/07/14 05:27:39;;;;;;;7.85;1.80;;;17.80;85.90;;;;;;5093101;28;20073;-68
2022/07/14 05:30:11;;;;;;;6.00;1.67;;;17.80;85.90;;;;;;5081497;28;20049;-68
2022/07/14 05:32:38;;;;;;;5.13;1.48;;;17.80;86.30;;;;;;5090930;28;20045;-68
2022/07/14 05:35:05;;;;;;;5.93;1.55;;;17.90;86.20;;;;;;5093662;28;20065;-68
2022/07/14 05:37:32;;;;;;;5.63;1.48;;;17.90;86.00;;;;;;5091677;28;20036;-69
2022/07/14 05:40:00;;;;;;;7.25;1.17;;;17.90;85.80;;;;;;5084162;28;20054;-68
2022/07/14 05:42:25;;;;;;;4.20;1.10;;;18.00;85.60;;;;;;5089289;28;20056;-68
2022/07/14 05:44:51;;;;;;;3.13;1.42;;;17.90;85.30;;;;;;5091691;28;20490;-68
2022/07/14 05:47:17;;;;;;;4.55;1.30;;;18.00;85.30;;;;;;5089563;28;20123;-69
2022/07/14 05:49:43;;;;;;;3.78;1.48;;;17.90;85.30;;;;;;5077059;28;20039;-72
2022/07/14 05:52:13;;;;;;;8.20;1.50;;;18.00;85.40;;;;;;5081592;28;20556;-72
2022/07/14 05:54:40;;;;;;;8.10;1.20;;;18.00;85.60;;;;;;5108879;28;20019;-69
2022/07/14 05:57:09;;;;;;;8.00;1.25;;;18.00;85.40;;;;;;5084786;28;20043;-68
2022/07/14 05:59:41;;;;;;;3.05;1.05;;;18.00;85.20;;;;;;5086491;28;20054;-72
2022/07/14 06:02:07;;;;;;;3.92;1.33;;;18.10;86.40;;;;;;5073786;28;20027;-71
2022/07/14 06:04:33;;;;;;;7.28;1.05;;;18.10;86.00;;;;;;5058778;28;20074;-72
2022/07/14 06:07:00;;;;;;;4.18;1.10;;;18.10;85.80;;;;;;5082688;28;20487;-70
2022/07/14 06:09:29;;;;;;;2.90;1.00;;;18.10;85.70;;;;;;5090145;28;20072;-70
2022/07/14 06:11:55;;;;;;;3.47;1.17;;;18.10;86.00;;;;;;5095665;28;20055;-70
2022/07/14 06:14:24;;;;;;;4.75;0.90;;;18.20;86.00;;;;;;5082654;28;20045;-70
2022/07/14 06:16:49;;;;;;;4.97;0.80;;;18.10;85.90;;;;;;5082488;28;20031;-70
2022/07/14 06:19:15;;;;;;;4.25;1.17;;;18.10;85.70;;;;;;5080846;28;20068;-70
2022/07/14 06:21:41;;;;;;;2.55;0.80;;;18.10;85.80;;;;;;5077837;28;20024;-70
2022/07/14 06:24:12;;;;;;;6.25;1.02;;;18.20;85.70;;;;;;5106009;28;20493;-70
2022/07/14 06:26:38;;;;;;;3.92;0.98;;;18.20;85.80;;;;;;5087199;28;21526;-70
2022/07/14 06:29:04;;;;;;;7.97;1.33;;;18.20;85.80;;;;;;5086718;28;20023;-70
2022/07/14 06:31:34;;;;;;;2.92;0.93;;;18.20;85.90;;;;;;5105168;28;20139;-70
2022/07/14 06:34:02;;;;;;;4.88;0.85;;;18.30;86.00;;;;;;5088265;28;20383;-71
2022/07/14 06:36:39;;;;;;;6.63;1.20;;;18.30;86.20;;;;;;5073434;28;20588;-71
2022/07/14 06:39:07;;;;;;;9.35;1.15;;;18.30;86.20;;;;;;5081133;28;20028;-71
2022/07/14 06:41:32;;;;;;;4.68;1.23;;;18.30;85.90;;;;;;5089420;28;20024;-73
2022/07/14 06:43:59;;;;;;;4.65;0.90;;;18.30;86.10;;;;;;5085931;28;20028;-71
2022/07/14 06:46:25;;;;;;;4.25;1.02;;;18.40;85.60;;;;;;5086425;28;20032;-71
2022/07/14 06:48:50;;;;;;;5.00;0.80;;;18.40;85.70;;;;;;5091636;28;20035;-72
2022/07/14 06:51:16;;;;;;;7.13;1.23;;;18.40;86.00;;;;;;5107477;28;20160;-72
2022/07/14 06:53:42;;;;;;;5.55;0.90;;;18.40;86.10;;;;;;5104653;28;20060;-72
2022/07/14 06:56:07;;;;;;;4.20;0.90;;;18.50;86.30;;;;;;5106210;28;20435;-72
2022/07/14 06:58:33;;;;;;;4.38;1.20;;;18.50;86.10;;;;;;5102107;28;20024;-72
2022/07/14 07:00:59;;;;;;;0.95;0.73;;;18.50;86.30;;;;;;5107029;28;20034;-72
2022/07/14 07:03:24;;;;;;;7.03;0.90;;;18.60;86.00;;;;;;5101006;28;20360;-72
2022/07/14 07:08:34;;;;;;;8.45;1.05;;;18.60;85.80;;;;;;5101979;28;20472;-72
2022/07/14 07:11:00;;;;;;;2.60;1.15;;;18.60;85.60;;;;;;5106393;28;20122;-72
2022/07/14 07:13:29;;;;;;;1.55;0.90;;;18.60;85.70;;;;;;5099381;28;20403;-71
2022/07/14 07:15:58;;;;;;;6.30;0.80;;;18.70;86.50;;;;;;5107197;28;20031;-72
2022/07/14 07:18:23;;;;;;;3.70;0.73;;;18.70;85.70;;;;;;5110053;28;20040;-71
2022/07/14 07:20:49;;;;;;;1.08;0.45;;;18.80;85.90;;;;;;5106401;28;20023;-70
2022/07/14 07:23:15;;;;;;;7.55;1.00;;;18.80;85.30;;;;;;5092661;28;20032;-71
2022/07/14 07:25:40;;;;;;;2.63;1.00;;;18.80;85.20;;;;;;5101727;28;20383;-69
2022/07/14 07:28:10;;;;;;;3.58;1.00;;;18.90;85.50;;;;;;5100239;28;20035;-70
2022/07/14 07:30:38;;;;;;;2.65;0.75;;;19.00;85.80;;;;;;5095261;28;20040;-71
2022/07/14 07:33:04;;;;;;;2.90;0.95;;;19.00;85.10;;;;;;5081657;28;20050;-72
2022/07/14 07:35:30;;;;;;;1.33;0.70;;;19.10;84.90;;;;;;5091622;28;21624;-71
2022/07/14 07:37:55;;;;;;;1.25;0.60;;;19.10;85.00;;;;;;5094859;28;20044;-71
2022/07/14 07:40:21;;;;;;;5.25;1.05;;;19.10;85.10;;;;;;5100586;28;20122;-71
2022/07/14 07:42:47;;;;;;;6.45;0.90;;;19.20;86.00;;;;;;5104331;28;20028;-71
2022/07/14 07:45:12;;;;;;;3.70;0.90;;;19.20;85.00;;;;;;5095669;28;20054;-73
2022/07/14 07:47:38;;;;;;;4.03;0.68;;;19.30;85.10;;;;;;5096909;28;20031;-71
2022/07/14 07:50:06;;;;;;;5.50;1.40;;;19.30;84.90;;;;;;5105081;28;20030;-72
2022/07/14 07:52:32;;;;;;;5.15;0.75;;;19.40;85.00;;;;;;5104910;28;20040;-72
2022/07/14 07:54:57;;;;;;;3.85;0.70;;;19.50;84.30;;;;;;5098900;28;20027;-72
2022/07/14 07:57:23;;;;;;;4.15;1.05;;;19.60;84.50;;;;;;5093414;28;20031;-71
2022/07/14 07:59:49;;;;;;;2.17;0.80;;;19.60;84.10;;;;;;5101821;28;20392;-70
2022/07/14 08:02:16;;;;;;;3.38;0.80;;;19.70;84.30;;;;;;5106962;28;20068;-70
2022/07/14 08:04:48;;;;;;;2.67;0.40;;;19.70;84.00;;;;;;5098130;28;20031;-72
2022/07/14 08:07:14;;;;;;;2.03;0.63;;;19.70;83.90;;;;;;5104932;28;20509;-70
2022/07/14 08:09:39;;;;;;;3.45;1.25;;;19.70;84.30;;;;;;5108602;28;20015;-71
2022/07/14 08:12:05;;;;;;;4.40;0.90;;;19.70;84.50;;;;;;5108453;28;20064;-70
2022/07/14 08:14:49;;;;;;;1.95;0.60;;;19.70;84.40;;;;;;5107445;28;20075;-71
2022/07/14 08:17:16;;;;;;;4.93;0.90;;;19.80;84.10;;;;;;5095231;28;20585;-69
2022/07/14 08:19:42;;;;;;;2.10;0.75;;;19.80;83.60;;;;;;5093744;28;20055;-70
2022/07/14 08:22:11;;;;;;;2.45;0.77;;;19.90;83.60;;;;;;5105711;28;20459;-70
2022/07/14 08:24:37;;;;;;;2.63;0.60;;;19.90;83.40;;;;;;5098587;28;20040;-70
2022/07/14 08:27:03;;;;;;;6.00;0.98;;;19.90;83.30;;;;;;5099256;28;20088;-70
2022/07/14 08:29:29;;;;;;;4.38;1.10;;;19.90;83.50;;;;;;5101981;28;20494;-70
2022/07/14 08:31:54;;;;;;;0.60;0.60;;;20.00;83.30;;;;;;5099868;28;20126;-70
2022/07/14 08:34:21;;;;;;;5.22;0.95;;;20.00;83.30;;;;;;5105837;28;20106;-70
2022/07/14 08:36:48;;;;;;;3.67;1.00;;;20.10;82.70;;;;;;5102277;28;20043;-71
2022/07/14 08:39:15;;;;;;;3.33;0.80;;;20.20;82.80;;;;;;5104803;28;20042;-71
2022/07/14 08:42:01;;;;;;;3.35;0.70;;;20.30;82.80;;;;;;5109352;28;20059;-71
2022/07/14 08:44:28;;;;;;;2.05;0.70;;;20.40;82.20;;;;;;5107236;28;20027;-71
2022/07/14 08:46:55;;;;;;;15.20;1.30;;;20.40;82.30;;;;;;5108470;28;20114;-71
2022/07/14 08:49:21;;;;;;;3.15;0.52;;;20.50;82.10;;;;;;5107298;28;20032;-71
2022/07/14 08:51:49;;;;;;;2.83;0.77;;;20.60;82.20;;;;;;5112403;28;20027;-71
2022/07/14 08:54:15;;;;;;;5.93;0.75;;;20.60;82.40;;;;;;5104145;28;20385;-70
2022/07/14 08:56:41;;;;;;;10.55;1.73;;;20.60;82.40;;;;;;5110378;28;20043;-70
2022/07/14 08:59:08;;;;;;;2.78;0.90;;;20.70;82.30;;;;;;5110417;28;20035;-72
2022/07/14 09:01:35;;;;;;;3.75;1.13;;;20.70;81.80;;;;;;5106693;28;20031;-70
2022/07/14 09:04:01;;;;;;;3.42;1.10;;;20.80;82.00;;;;;;5091279;28;20036;-71
2022/07/14 09:06:52;;;;;;;1.80;0.85;;;20.80;81.50;;;;;;5089955;28;20067;-70
2022/07/14 09:09:27;;;;;;;2.47;0.73;;;20.80;81.10;;;;;;5095080;28;20498;-71
2022/07/14 09:12:00;;;;;;;2.92;0.60;;;20.80;81.20;;;;;;5082130;28;20024;-71
2022/07/14 09:14:27;;;;;;;2.38;0.65;;;20.90;81.70;;;;;;5093509;28;20060;-72
2022/07/14 09:17:14;;;;;;;3.10;0.80;;;20.90;81.70;;;;;;5094809;28;20043;-70
2022/07/14 09:20:10;;;;;;;3.67;0.70;;;21.00;81.90;;;;;;5093394;28;20036;-70
2022/07/14 09:22:42;;;;;;;1.48;0.68;;;21.10;81.90;;;;;;5104625;28;20031;-70
2022/07/14 09:25:12;;;;;;;2.65;0.98;;;21.10;81.30;;;;;;5096881;28;20458;-71
2022/07/14 09:27:39;;;;;;;3.88;1.23;;;21.10;81.00;;;;;;5095516;28;20028;-70
2022/07/14 09:30:06;;;;;;;8.65;1.88;;;21.10;81.00;;;;;;5093941;28;20028;-69
2022/07/14 09:32:43;;;;;;;2.15;0.60;;;21.20;80.80;;;;;;5096819;28;20081;-68
2022/07/14 09:35:11;;;;;;;2.85;0.75;;;21.20;81.10;;;;;;5092542;28;20040;-68
2022/07/14 09:37:37;;;;;;;5.15;1.63;;;21.30;80.50;;;;;;5094089;28;20478;-68
2022/07/14 09:40:06;;;;;;;3.78;0.70;;;21.30;80.20;;;;;;5094124;28;20028;-69
2022/07/14 09:42:51;;;;;;;4.10;0.80;;;21.40;80.30;;;;;;5093607;28;20043;-69
2022/07/14 09:45:23;;;;;;;1.25;0.60;;;21.40;80.60;;;;;;5097768;28;20379;-69
2022/07/14 09:48:00;;;;;;;3.78;0.90;;;21.40;81.60;;;;;;5094343;28;20032;-69
2022/07/14 09:50:32;;;;;;;1.15;0.60;;;21.50;80.50;;;;;;5094530;28;20040;-69
2022/07/14 09:52:58;;;;;;;3.08;0.60;;;21.50;80.40;;;;;;5095734;28;20103;-69
2022/07/14 09:55:23;;;;;;;1.65;0.73;;;21.50;80.70;;;;;;5094908;28;20048;-69
2022/07/14 09:57:51;;;;;;;2.03;0.80;;;21.60;80.30;;;;;;5098443;28;20036;-69
2022/07/14 10:00:19;;;;;;;4.55;1.30;;;21.60;80.10;;;;;;5098222;28;20096;-69
2022/07/14 10:02:45;;;;;;;3.22;0.95;;;21.70;80.10;;;;;;5095758;28;20039;-69
2022/07/14 10:05:13;;;;;;;3.38;1.00;;;21.70;79.60;;;;;;5105509;28;20114;-69
2022/07/14 10:07:41;;;;;;;5.03;1.08;;;21.70;79.40;;;;;;5094897;28;20032;-69
2022/07/14 10:10:13;;;;;;;0.95;0.68;;;21.80;79.10;;;;;;5093651;28;20032;-70
2022/07/14 10:12:41;;;;;;;2.40;0.67;;;21.90;79.70;;;;;;5111239;28;20088;-68
2022/07/14 10:15:10;;;;;;;3.58;0.90;;;21.90;80.00;;;;;;5110517;28;20055;-70
2022/07/14 10:17:39;;;;;;;1.65;0.80;;;21.90;79.60;;;;;;5091517;28;20391;-70
2022/07/14 10:20:08;;;;;;;3.00;0.70;;;21.90;79.00;;;;;;5106906;28;20035;-69
2022/07/14 10:22:35;;;;;;;0.50;0.50;;;21.90;79.50;;;;;;5095212;28;20054;-70
2022/07/14 10:25:03;;;;;;;1.67;0.70;;;22.00;79.90;;;;;;5104017;28;20110;-70
2022/07/14 10:27:29;;;;;;;1.35;0.40;;;22.00;79.00;;;;;;5102765;28;20033;-70
2022/07/14 10:29:57;;;;;;;4.80;0.90;;;22.00;80.10;;;;;;5100546;28;20024;-70
2022/07/14 10:32:54;;;;;;;5.85;1.10;;;22.00;80.00;;;;;;5098781;28;21058;-70
2022/07/14 10:35:49;;;;;;;4.22;0.80;;;22.10;79.60;;;;;;5095325;28;20036;-70
2022/07/14 10:38:42;;;;;;;5.88;1.02;;;22.10;79.60;;;;;;5100095;28;20074;-71
2022/07/14 10:41:24;;;;;;;1.77;0.83;;;22.20;79.40;;;;;;5109178;28;20035;-70
2022/07/14 10:44:15;;;;;;;5.88;0.80;;;22.20;79.90;;;;;;5097292;28;20066;-69
2022/07/14 10:46:46;;;;;;;2.83;0.82;;;22.20;79.20;;;;;;5097236;28;20389;-69
2022/07/14 10:49:14;;;;;;;1.50;0.50;;;22.30;79.00;;;;;;5088195;28;20077;-69
2022/07/14 10:51:50;;;;;;;4.45;0.80;;;22.30;78.70;;;;;;5111545;28;20027;-68
2022/07/14 10:54:26;;;;;;;4.40;0.80;;;22.30;79.10;;;;;;5093857;28;20024;-73
2022/07/14 10:57:09;;;;;;;6.97;1.10;;;22.30;78.90;;;;;;5104198;28;20089;-69
2022/07/14 10:59:36;;;;;;;4.30;0.63;;;22.40;79.40;;;;;;5105567;28;20050;-69
2022/07/14 11:02:14;;;;;;;4.78;0.85;;;22.40;79.50;;;;;;5098314;28;20031;-68
2022/07/14 11:04:58;;;;;;;2.67;0.65;;;22.40;78.20;;;;;;5097982;28;20024;-69
2022/07/14 11:07:40;;;;;;;4.05;0.70;;;22.40;79.00;;;;;;5089864;28;20032;-68
2022/07/14 11:10:14;;;;;;;1.45;0.63;;;22.40;78.90;;;;;;5100589;28;20510;-68
2022/07/14 11:12:59;;;;;;;3.22;0.95;;;22.40;79.20;;;;;;5103285;28;20035;-68
2022/07/14 11:15:38;;;;;;;2.08;1.00;;;22.40;79.10;;;;;;5098397;28;20089;-68
2022/07/14 11:18:24;;;;;;;5.40;0.73;;;22.40;79.40;;;;;;5100496;28;20381;-68
2022/07/14 11:21:08;;;;;;;0.68;0.38;;;22.40;79.40;;;;;;5089824;28;20039;-68
2022/07/14 11:23:50;;;;;;;3.17;0.80;;;22.50;80.10;;;;;;5101741;28;20067;-68
2022/07/14 11:26:40;;;;;;;2.97;0.77;;;22.50;79.70;;;;;;5093991;28;20024;-68
2022/07/14 11:29:11;;;;;;;1.45;0.90;;;22.50;79.80;;;;;;5106096;28;20357;-68
2022/07/14 11:31:55;;;;;;;6.10;1.15;;;22.50;79.80;;;;;;5099006;28;20020;-71
2022/07/14 11:37:13;;;;;;;1.20;0.70;;;22.60;79.80;;;;;;5086313;28;20036;-69
2022/07/14 11:39:41;;;;;;;1.58;0.50;;;22.70;79.90;;;;;;5111621;28;20024;-68
2022/07/14 11:42:19;;;;;;;3.10;0.82;;;22.70;80.00;;;;;;5105998;28;20046;-68
2022/07/14 11:44:47;;;;;;;2.30;0.77;;;22.70;79.40;;;;;;5098974;28;20024;-68
2022/07/14 11:47:22;;;;;;;3.67;0.88;;;22.80;78.60;;;;;;5093355;28;20590;-69
2022/07/14 11:49:57;;;;;;;7.97;1.45;;;22.80;78.60;;;;;;5091333;28;20035;-69
2022/07/14 11:52:29;;;;;;;4.05;1.60;;;22.80;78.80;;;;;;5092778;28;20032;-68
2022/07/14 11:54:56;;;;;;;3.70;1.00;;;22.80;77.80;;;;;;5092224;28;20383;-69
2022/07/14 11:57:22;;;;;;;7.88;1.17;;;22.90;78.10;;;;;;5092216;28;20067;-69
2022/07/14 11:59:51;;;;;;;2.92;0.63;;;22.90;77.10;;;;;;5093637;28;20039;-68
2022/07/14 12:02:18;;;;;;;1.50;0.68;;;22.90;77.20;;;;;;5093696;28;20032;-70
2022/07/14 12:05:02;;;;;;;3.67;0.68;;;23.00;76.90;;;;;;5090402;28;20149;-70
2022/07/14 12:07:45;;;;;;;3.45;0.90;;;23.00;76.20;;;;;;5092572;28;20043;-69
2022/07/14 12:10:11;;;;;;;2.75;0.63;;;23.10;76.90;;;;;;5113655;28;20537;-69
2022/07/14 12:12:42;;;;;;;5.90;1.15;;;23.00;76.80;;;;;;5103838;28;20024;-69
2022/07/14 12:15:09;;;;;;;4.55;1.02;;;23.10;75.70;;;;;;5095343;28;20063;-69
2022/07/14 12:17:49;;;;;;;5.60;0.98;;;23.10;74.50;;;;;;5094896;28;20131;-69
2022/07/14 12:20:15;;;;;;;2.63;1.00;;;23.20;75.60;;;;;;5096149;28;20464;-69
2022/07/14 12:22:54;;;;;;;7.93;1.13;;;23.20;76.00;;;;;;5095535;28;20028;-69
2022/07/14 12:25:32;;;;;;;2.63;0.88;;;23.20;74.80;;;;;;5095216;28;20707;-69
2022/07/14 12:28:09;;;;;;;2.58;0.70;;;23.20;76.30;;;;;;5108046;28;20047;-69
2022/07/14 12:30:46;;;;;;;8.27;0.95;;;23.20;76.40;;;;;;5107509;28;20459;-69
2022/07/14 12:33:13;;;;;;;1.60;0.70;;;23.20;75.70;;;;;;5093762;28;20031;-69
2022/07/14 12:35:40;;;;;;;3.25;0.80;;;23.30;75.50;;;;;;5100553;28;20490;-70
2022/07/14 12:38:08;;;;;;;1.90;0.55;;;23.40;74.90;;;;;;5110420;28;20440;-69
2022/07/14 12:40:34;;;;;;;4.30;0.85;;;23.40;76.50;;;;;;5088351;28;20031;-69
2022/07/14 12:43:00;;;;;;;4.32;1.25;;;23.40;74.70;;;;;;5105730;28;20032;-69
2022/07/14 12:45:25;;;;;;;3.17;0.93;;;23.40;74.20;;;;;;5094363;28;20036;-69
2022/07/14 12:48:00;;;;;;;9.60;1.50;;;23.50;75.30;;;;;;5095705;28;20028;-69
2022/07/14 12:50:28;;;;;;;12.18;1.05;;;23.50;74.90;;;;;;5095265;28;20388;-69
2022/07/14 12:52:55;;;;;;;14.43;1.05;;;23.60;74.30;;;;;;5095093;28;20381;-70
2022/07/14 12:55:58;;;;;;;3.88;0.73;;;23.60;74.40;;;;;;5095134;28;20036;-69
2022/07/14 12:58:27;;;;;;;9.75;0.93;;;23.60;76.10;;;;;;5071221;28;20036;-69
2022/07/14 13:00:53;;;;;;;5.70;1.00;;;23.80;76.60;;;;;;5095405;28;20066;-69
2022/07/14 13:03:19;;;;;;;7.97;1.00;;;23.80;74.60;;;;;;5095511;28;20024;-70
2022/07/14 13:05:56;;;;;;;3.17;0.90;;;23.80;75.10;;;;;;5094807;28;20118;-68
2022/07/14 13:08:35;;;;;;;3.28;1.00;;;23.80;74.40;;;;;;5094180;28;20028;-71